Beverley, United Kingdom
Current Conditions -  °F | °C
As of 5:50 PM on Thursday 29 Jan 2015 (Local Time) from EGXV Reporting Station
Few Clouds Few Clouds  
Wind Chill: 25°   Ceiling: Unl
Heat Index: 32°   Visibility: 6mi
Dew Point: 28°   Wind: 8mph
Humidity: 87%   Direction: 260°W
Pressure: 28.73"   Gusts: NA
Location:  53.85°N, 0.44°W
Report Text: EGXV 291750Z AUTO 26007KT 9999 FEW050/// 00/M02 Q0973
Loading
Personal Weather Stations






























Interactive Weather Map New forecast layout! Learn more

10-Day Weather Forecast

Advertisements
Track Severe Weather on mobile